createdAt,value
2018-03-27T00:00:32.519Z,4.70
2018-03-27T00:03:00.063Z,4.80
2018-03-27T00:05:27.610Z,4.80
2018-03-27T00:07:55.198Z,4.80
2018-03-27T00:10:22.751Z,4.90
2018-03-27T00:12:50.284Z,4.70
2018-03-27T00:15:17.838Z,4.70
2018-03-27T00:17:45.366Z,4.80
2018-03-27T00:20:13.684Z,4.50
2018-03-27T00:22:41.210Z,4.50
2018-03-27T00:25:09.534Z,4.70
2018-03-27T00:27:49.719Z,4.60
2018-03-27T00:30:29.050Z,4.60
2018-03-27T00:33:08.407Z,4.60
2018-03-27T00:35:48.737Z,4.60
2018-03-27T00:38:28.151Z,4.60
2018-03-27T00:40:55.210Z,4.50
2018-03-27T00:43:22.734Z,4.50
2018-03-27T00:45:50.285Z,4.40
2018-03-27T00:48:17.817Z,4.40
2018-03-27T00:50:45.464Z,4.30
2018-03-27T00:53:13.790Z,4.30
2018-03-27T00:55:41.338Z,4.30
2018-03-27T00:58:09.630Z,4.20
2018-03-27T01:00:37.218Z,4.20
2018-03-27T01:03:04.746Z,4.10
2018-03-27T01:05:32.307Z,4.10
2018-03-27T01:07:59.935Z,4.20
2018-03-27T01:10:27.519Z,4.20
2018-03-27T01:12:55.068Z,4.20
2018-03-27T01:15:23.394Z,4.20
2018-03-27T01:17:50.931Z,4.20
2018-03-27T01:20:18.534Z,4.10
2018-03-27T01:22:46.058Z,4.10
2018-03-27T01:25:13.613Z,4.00
2018-03-27T01:27:41.142Z,3.90
2018-03-27T01:30:09.471Z,3.80
2018-03-27T01:32:37.002Z,3.70
2018-03-27T01:35:04.548Z,3.80
2018-03-27T01:37:32.849Z,3.70
2018-03-27T01:40:00.669Z,3.70
2018-03-27T01:42:28.211Z,3.70
2018-03-27T01:44:55.773Z,3.60
2018-03-27T01:47:23.302Z,3.60
2018-03-27T01:49:50.866Z,3.60
2018-03-27T01:52:18.470Z,3.70
2018-03-27T01:54:46.308Z,3.50
2018-03-27T01:57:13.854Z,3.50
2018-03-27T01:59:41.408Z,3.40
2018-03-27T02:02:08.965Z,3.30
2018-03-27T02:04:36.498Z,3.30
2018-03-27T02:07:04.813Z,3.10
2018-03-27T02:09:32.384Z,3.10
2018-03-27T02:12:05.650Z,3.00
2018-03-27T02:14:38.734Z,3.00
2018-03-27T02:17:11.898Z,3.00
2018-03-27T02:19:45.933Z,3.00
2018-03-27T02:22:13.479Z,3.00
2018-03-27T02:24:41.773Z,3.00
2018-03-27T02:27:09.348Z,3.00
2018-03-27T02:29:36.987Z,3.10
2018-03-27T02:32:05.441Z,2.90
2018-03-27T02:34:32.975Z,2.90
2018-03-27T02:37:00.525Z,2.80
2018-03-27T02:39:28.050Z,2.80
2018-03-27T02:41:55.610Z,2.80
2018-03-27T02:44:23.266Z,2.90
2018-03-27T02:46:50.863Z,3.00
2018-03-27T02:49:18.402Z,3.00
2018-03-27T02:51:45.979Z,3.10
2018-03-27T02:54:13.525Z,3.10
2018-03-27T02:56:41.080Z,3.10
2018-03-27T02:59:08.608Z,3.10
2018-03-27T03:01:36.927Z,3.10
2018-03-27T03:04:04.743Z,3.10
2018-03-27T03:06:32.298Z,3.10
2018-03-27T03:08:59.832Z,3.20
2018-03-27T03:11:27.394Z,3.20
2018-03-27T03:13:54.930Z,3.20
2018-03-27T03:16:22.519Z,3.30
2018-03-27T03:18:50.046Z,3.40
2018-03-27T03:21:17.598Z,3.50
2018-03-27T03:23:45.187Z,3.40
2018-03-27T03:26:12.737Z,3.40
2018-03-27T03:28:40.273Z,3.40
2018-03-27T03:31:07.826Z,3.40
2018-03-27T03:33:36.293Z,3.50
2018-03-27T03:36:04.607Z,3.50
2018-03-27T03:38:32.180Z,3.50
2018-03-27T03:41:00.559Z,3.40
2018-03-27T03:43:28.090Z,3.40
2018-03-27T03:45:55.646Z,3.50
2018-03-27T03:48:23.196Z,3.50
2018-03-27T03:50:51.514Z,3.50
2018-03-27T03:53:19.042Z,3.50
2018-03-27T03:55:47.370Z,3.50
2018-03-27T03:58:14.987Z,3.50
2018-03-27T04:00:42.547Z,3.50
2018-03-27T04:03:10.089Z,3.60
2018-03-27T04:05:38.475Z,3.30
2018-03-27T04:08:06.050Z,3.30
2018-03-27T04:10:40.323Z,3.30
2018-03-27T04:13:08.642Z,3.30
2018-03-27T04:15:36.206Z,3.30
2018-03-27T04:18:03.763Z,3.30
2018-03-27T04:20:31.330Z,3.20
2018-03-27T04:22:58.863Z,3.20
2018-03-27T04:25:27.158Z,3.30
2018-03-27T04:27:54.715Z,3.30
2018-03-27T04:30:22.252Z,3.30
2018-03-27T04:32:50.580Z,3.30
2018-03-27T04:35:18.164Z,3.30
2018-03-27T04:37:45.758Z,3.30
2018-03-27T04:40:14.327Z,3.20
2018-03-27T04:42:41.921Z,3.20
2018-03-27T04:45:09.457Z,3.30
2018-03-27T04:47:37.784Z,3.10
2018-03-27T04:50:05.407Z,3.10
2018-03-27T04:52:33.726Z,3.10
2018-03-27T04:55:01.445Z,3.10
2018-03-27T04:57:29.886Z,3.10
2018-03-27T04:59:57.410Z,3.10
2018-03-27T05:02:25.812Z,3.10
2018-03-27T05:04:53.370Z,3.20
2018-03-27T05:07:20.919Z,3.20
2018-03-27T05:09:48.458Z,3.20
2018-03-27T05:12:16.019Z,3.30
2018-03-27T05:14:43.555Z,3.30
2018-03-27T05:17:11.882Z,3.20
2018-03-27T05:19:39.418Z,3.20
2018-03-27T05:22:06.974Z,3.30
2018-03-27T05:24:34.510Z,3.40
2018-03-27T05:27:02.073Z,3.40
2018-03-27T05:29:30.378Z,3.40
2018-03-27T05:31:57.942Z,3.40
2018-03-27T05:34:25.500Z,3.30
2018-03-27T05:36:53.050Z,3.30
2018-03-27T05:39:20.592Z,3.40
2018-03-27T05:41:48.914Z,3.50
2018-03-27T05:44:16.451Z,3.60
2018-03-27T05:46:44.046Z,3.50
2018-03-27T05:49:11.554Z,3.60
2018-03-27T05:51:39.871Z,3.50
2018-03-27T05:54:07.554Z,3.50
2018-03-27T05:56:35.109Z,3.50
2018-03-27T05:59:02.646Z,3.60
2018-03-27T06:01:30.198Z,3.60
2018-03-27T06:03:57.734Z,3.60
2018-03-27T06:06:26.055Z,3.60
2018-03-27T06:08:53.586Z,3.60
2018-03-27T06:11:21.138Z,3.60
2018-03-27T06:13:49.430Z,3.70
2018-03-27T06:16:16.982Z,3.70
2018-03-27T06:18:44.558Z,3.70
2018-03-27T06:21:12.841Z,3.60
2018-03-27T06:23:40.378Z,3.60
2018-03-27T06:26:07.934Z,3.60
2018-03-27T06:28:35.467Z,3.60
2018-03-27T06:31:03.022Z,3.60
2018-03-27T06:33:30.546Z,3.80
2018-03-27T06:55:36.150Z,4.20
2018-03-27T06:58:03.710Z,4.20
2018-03-27T07:00:31.241Z,4.30
2018-03-27T07:02:58.809Z,4.30
2018-03-27T07:05:26.359Z,4.30
2018-03-27T07:07:53.922Z,4.20
2018-03-27T07:10:21.446Z,4.20
2018-03-27T07:12:49.062Z,4.20
2018-03-27T07:15:16.566Z,4.10
2018-03-27T07:17:44.139Z,4.20
2018-03-27T07:20:11.686Z,4.30
2018-03-27T07:22:40.011Z,4.40
2018-03-27T07:25:07.543Z,4.40
2018-03-27T07:27:35.101Z,4.40
2018-03-27T07:30:02.630Z,4.50
2018-03-27T07:32:31.008Z,4.70
2018-03-27T07:34:58.515Z,4.60
2018-03-27T07:37:26.091Z,4.70
2018-03-27T07:39:53.614Z,4.80
2018-03-27T07:42:21.147Z,4.80
2018-03-27T07:44:49.470Z,4.90
2018-03-27T07:47:16.994Z,4.80
2018-03-27T07:49:45.336Z,4.70
2018-03-27T07:52:12.868Z,4.70
2018-03-27T07:54:40.428Z,4.80
2018-03-27T07:57:07.950Z,4.90
2018-03-27T07:59:36.272Z,4.80
2018-03-27T08:02:03.811Z,4.80
2018-03-27T08:04:31.379Z,4.90
2018-03-27T08:06:58.918Z,4.80
2018-03-27T08:09:26.474Z,4.80
2018-03-27T08:11:54.012Z,4.80
2018-03-27T08:14:21.562Z,4.80
2018-03-27T08:16:49.098Z,4.80
2018-03-27T08:19:16.645Z,4.80
2018-03-27T08:21:44.173Z,4.80
2018-03-27T08:24:11.849Z,5.00
2018-03-27T08:26:39.286Z,5.10
2018-03-27T08:29:07.582Z,5.30
2018-03-27T08:31:35.141Z,5.30
2018-03-27T08:34:02.670Z,5.50
2018-03-27T08:36:31.067Z,5.70
2018-03-27T08:38:58.558Z,5.80
2018-03-27T08:41:26.111Z,5.60
2018-03-27T08:43:53.634Z,5.60
2018-03-27T08:46:21.957Z,5.70
2018-03-27T08:48:49.491Z,5.70
2018-03-27T08:51:17.037Z,6.00
2018-03-27T08:53:45.343Z,6.00
2018-03-27T08:56:12.907Z,6.00
2018-03-27T08:58:40.430Z,6.20
2018-03-27T09:01:08.746Z,6.40
2018-03-27T09:03:36.282Z,6.40
2018-03-27T09:06:03.864Z,6.60
2018-03-27T09:08:31.394Z,6.90
2018-03-27T09:10:59.706Z,7.20
2018-03-27T09:13:27.260Z,7.30
2018-03-27T09:15:54.790Z,7.20
2018-03-27T09:18:23.110Z,7.00
2018-03-27T09:20:50.647Z,7.00
2018-03-27T09:23:18.238Z,7.00
2018-03-27T09:25:45.763Z,7.00
2018-03-27T09:28:13.314Z,7.20
2018-03-27T09:30:40.846Z,7.60
2018-03-27T09:33:08.409Z,7.60
2018-03-27T09:35:36.715Z,7.60
2018-03-27T09:38:04.270Z,7.60
2018-03-27T09:40:31.808Z,7.60
2018-03-27T09:43:00.137Z,8.00
2018-03-27T09:45:27.667Z,8.00
2018-03-27T09:47:55.243Z,8.10
2018-03-27T09:50:22.777Z,8.40
2018-03-27T09:52:50.354Z,8.90
2018-03-27T09:55:17.882Z,9.30
2018-03-27T09:57:46.204Z,9.90
2018-03-27T10:00:13.730Z,9.90
2018-03-27T10:02:42.067Z,10.00
2018-03-27T10:05:09.604Z,10.00
2018-03-27T10:07:37.176Z,10.20
2018-03-27T10:10:04.701Z,10.20
2018-03-27T10:12:32.257Z,10.20
2018-03-27T10:14:59.793Z,10.10
2018-03-27T10:17:27.351Z,10.20
2018-03-27T10:19:55.658Z,9.90
2018-03-27T10:22:23.218Z,9.90
2018-03-27T10:24:50.754Z,10.20
2018-03-27T10:27:19.089Z,10.50
2018-03-27T10:29:46.632Z,10.50
2018-03-27T10:32:14.218Z,10.70
2018-03-27T10:34:41.757Z,10.60
2018-03-27T10:37:09.317Z,10.80
2018-03-27T10:39:36.851Z,11.00
2018-03-27T10:42:04.415Z,10.80
2018-03-27T10:44:31.960Z,10.70
2018-03-27T10:47:00.269Z,10.40
2018-03-27T10:49:27.821Z,10.30
2018-03-27T10:51:55.359Z,10.20
2018-03-27T10:54:23.680Z,9.90
2018-03-27T10:56:51.992Z,9.80
2018-03-27T10:59:19.554Z,9.80
2018-03-27T11:01:47.083Z,9.80
2018-03-27T11:04:15.409Z,9.40
2018-03-27T11:06:43.709Z,9.50
2018-03-27T11:09:11.259Z,9.40
2018-03-27T11:11:38.790Z,9.40
2018-03-27T11:14:06.350Z,9.40
2018-03-27T11:16:33.883Z,9.60
2018-03-27T11:19:01.435Z,9.60
2018-03-27T11:21:28.964Z,9.70
2018-03-27T11:23:56.531Z,9.60
2018-03-27T11:26:24.062Z,9.70
2018-03-27T11:28:52.377Z,9.60
2018-03-27T11:31:19.897Z,9.60
2018-03-27T11:33:48.222Z,9.50
2018-03-27T11:36:15.758Z,9.40
2018-03-27T11:38:43.315Z,9.50
2018-03-27T11:41:10.843Z,9.50
2018-03-27T11:43:38.396Z,9.60
2018-03-27T11:46:05.926Z,9.70
2018-03-27T11:48:33.478Z,9.90
2018-03-27T11:51:01.002Z,9.90
2018-03-27T11:53:28.575Z,10.10
2018-03-27T11:55:56.119Z,10.10
2018-03-27T11:58:24.442Z,10.00
2018-03-27T12:00:51.978Z,10.00
2018-03-27T12:03:19.543Z,10.10
2018-03-27T12:05:47.078Z,10.30
2018-03-27T12:08:15.402Z,10.30
2018-03-27T12:10:42.935Z,10.30
2018-03-27T12:13:10.495Z,10.40
2018-03-27T12:15:38.031Z,10.20
2018-03-27T12:18:06.355Z,10.40
2018-03-27T12:20:33.891Z,10.40
2018-03-27T12:23:01.446Z,10.70
2018-03-27T12:25:28.982Z,10.40
2018-03-27T12:27:57.306Z,10.50
2018-03-27T12:30:24.839Z,10.50
2018-03-27T12:32:52.399Z,10.30
2018-03-27T12:35:19.930Z,10.00
2018-03-27T12:37:48.258Z,9.60
2018-03-27T12:40:15.791Z,9.50
2018-03-27T12:42:43.348Z,9.20
2018-03-27T12:45:10.888Z,8.90
2018-03-27T12:47:39.192Z,8.70
2018-03-27T12:50:06.754Z,8.70
2018-03-27T12:52:34.298Z,9.10
2018-03-27T12:55:02.624Z,9.50
2018-03-27T12:57:30.168Z,9.50
2018-03-27T12:59:57.727Z,9.60
2018-03-27T13:02:25.254Z,9.30
2018-03-27T13:04:53.586Z,9.10
2018-03-27T13:07:21.124Z,9.10
2018-03-27T13:09:48.680Z,9.00
2018-03-27T13:12:16.212Z,9.00
2018-03-27T13:14:44.538Z,9.40
2018-03-27T13:17:12.850Z,9.50
2018-03-27T13:19:41.177Z,9.80
2018-03-27T13:22:08.719Z,9.80
2018-03-27T13:24:36.275Z,9.80
2018-03-27T13:27:03.810Z,9.60
2018-03-27T13:29:32.133Z,9.40
2018-03-27T13:31:59.678Z,9.40
2018-03-27T13:34:27.242Z,9.00
2018-03-27T13:36:54.771Z,8.70
2018-03-27T13:39:23.095Z,8.40
2018-03-27T13:41:50.628Z,8.40
2018-03-27T13:44:18.199Z,8.30
2018-03-27T13:46:45.738Z,8.30
2018-03-27T13:49:14.056Z,8.40
2018-03-27T13:51:41.583Z,8.40
2018-03-27T13:54:09.146Z,8.40
2018-03-27T13:56:36.672Z,8.40
2018-03-27T13:59:04.230Z,8.30
2018-03-27T14:01:31.810Z,8.20
2018-03-27T14:04:00.139Z,8.30
2018-03-27T14:06:27.673Z,8.20
2018-03-27T14:08:55.230Z,8.20
2018-03-27T14:11:22.759Z,8.20
2018-03-27T14:13:51.089Z,8.60
2018-03-27T14:16:18.627Z,8.50
2018-03-27T14:18:46.183Z,8.60
2018-03-27T14:21:13.715Z,8.50
2018-03-27T14:23:42.059Z,8.30
2018-03-27T14:26:09.601Z,8.30
2018-03-27T14:28:37.133Z,8.20
2018-03-27T14:31:04.743Z,8.30
2018-03-27T14:33:32.275Z,8.30
2018-03-27T14:35:59.830Z,8.30
2018-03-27T14:38:27.362Z,8.20
2018-03-27T14:40:55.687Z,7.90
2018-03-27T14:43:23.216Z,7.90
2018-03-27T14:45:50.774Z,7.90
2018-03-27T14:48:18.303Z,7.90
2018-03-27T14:50:45.858Z,7.90
2018-03-27T14:53:13.390Z,7.80
2018-03-27T14:55:40.937Z,7.70
2018-03-27T14:58:08.467Z,7.70
2018-03-27T15:00:36.023Z,7.70
2018-03-27T15:03:03.559Z,7.60
2018-03-27T15:05:31.891Z,7.40
2018-03-27T15:07:59.424Z,7.40
2018-03-27T15:10:26.982Z,7.30
2018-03-27T15:12:54.511Z,7.20
2018-03-27T15:15:22.067Z,7.20
2018-03-27T15:17:49.599Z,7.20
2018-03-27T15:20:17.187Z,7.20
2018-03-27T15:22:44.718Z,7.10
2018-03-27T15:25:12.242Z,7.10
2018-03-27T15:27:39.796Z,7.20
2018-03-27T15:30:07.329Z,7.10
2018-03-27T15:32:34.888Z,7.00
2018-03-27T15:35:02.425Z,7.00
2018-03-27T15:37:29.975Z,7.10
2018-03-27T15:39:57.551Z,7.00
2018-03-27T15:42:25.077Z,7.00
2018-03-27T15:44:52.611Z,6.90
2018-03-27T15:47:20.926Z,6.90
2018-03-27T15:49:48.467Z,6.90
2018-03-27T15:52:16.029Z,6.90
2018-03-27T15:54:43.561Z,7.00
2018-03-27T15:57:11.891Z,7.10
2018-03-27T15:59:39.432Z,7.10
2018-03-27T16:02:07.000Z,7.10
2018-03-27T16:04:34.530Z,7.10
2018-03-27T16:07:02.455Z,7.00
2018-03-27T16:09:30.047Z,7.00
2018-03-27T16:11:58.378Z,6.80
2018-03-27T16:14:26.683Z,6.80
2018-03-27T16:16:54.240Z,6.80
2018-03-27T16:19:21.778Z,6.70
2018-03-27T16:21:49.331Z,6.60
2018-03-27T16:24:16.867Z,6.60
2018-03-27T16:26:44.425Z,6.50
2018-03-27T16:29:11.963Z,6.50
2018-03-27T16:31:40.290Z,6.40
2018-03-27T16:34:07.831Z,6.30
2018-03-27T16:36:35.396Z,6.30
2018-03-27T16:39:02.926Z,6.30
2018-03-27T16:41:30.478Z,6.30
2018-03-27T16:43:58.766Z,6.20
2018-03-27T16:46:26.342Z,6.10
2018-03-27T16:48:53.893Z,6.10
2018-03-27T16:51:21.451Z,6.00
2018-03-27T16:53:48.986Z,6.00
2018-03-27T16:56:17.318Z,5.80
2018-03-27T16:58:45.612Z,5.80
2018-03-27T17:01:13.162Z,5.80
2018-03-27T17:03:40.694Z,5.80
2018-03-27T17:06:08.247Z,5.80
2018-03-27T17:08:35.786Z,5.70
2018-03-27T17:11:04.078Z,5.70
2018-03-27T17:13:31.641Z,5.70
2018-03-27T17:15:59.209Z,5.70
2018-03-27T17:18:26.764Z,5.70
2018-03-27T17:20:54.295Z,5.70
2018-03-27T17:23:22.618Z,5.70
2018-03-27T17:25:50.158Z,5.70
2018-03-27T17:28:17.712Z,5.70
2018-03-27T17:30:45.249Z,5.70
2018-03-27T17:33:13.655Z,5.70
2018-03-27T17:35:41.184Z,5.70
2018-03-27T17:38:08.743Z,5.70
2018-03-27T17:40:36.275Z,5.70
2018-03-27T17:43:03.864Z,5.60
2018-03-27T17:45:31.398Z,5.60
2018-03-27T17:47:59.102Z,5.60
2018-03-27T17:50:26.655Z,5.60
2018-03-27T17:52:54.979Z,5.60
2018-03-27T17:55:22.511Z,5.60
2018-03-27T17:57:50.070Z,5.60
2018-03-27T18:00:18.360Z,5.60
2018-03-27T18:02:45.942Z,5.60
2018-03-27T18:05:13.466Z,5.60
2018-03-27T18:07:41.030Z,5.60
2018-03-27T18:10:08.563Z,5.60
2018-03-27T18:12:36.119Z,5.60
2018-03-27T18:15:03.654Z,5.60
2018-03-27T18:17:31.987Z,5.60
2018-03-27T18:19:59.514Z,5.50
2018-03-27T18:22:27.073Z,5.60
2018-03-27T18:24:54.607Z,5.50
2018-03-27T18:27:22.175Z,5.50
2018-03-27T18:29:49.705Z,5.40
2018-03-27T18:32:17.262Z,5.40
2018-03-27T18:34:44.786Z,5.40
2018-03-27T18:37:13.119Z,5.40
2018-03-27T18:39:40.653Z,5.40
2018-03-27T18:42:08.208Z,5.40
2018-03-27T18:44:35.737Z,5.40
2018-03-27T18:47:04.083Z,5.40
2018-03-27T18:49:31.611Z,5.30
2018-03-27T18:51:59.162Z,5.40
2018-03-27T18:54:26.686Z,5.40
2018-03-27T18:56:54.259Z,5.30
2018-03-27T18:59:22.558Z,5.40
2018-03-27T19:01:50.127Z,5.40
2018-03-27T19:04:18.441Z,5.40
2018-03-27T19:06:45.994Z,5.40
2018-03-27T19:09:13.533Z,5.40
2018-03-27T19:11:41.063Z,5.40
2018-03-27T19:14:08.613Z,5.40
2018-03-27T19:16:36.905Z,5.40
2018-03-27T19:19:04.454Z,5.40
2018-03-27T19:21:32.762Z,5.40
2018-03-27T19:24:00.328Z,5.40
2018-03-27T19:26:27.875Z,5.40
2018-03-27T19:28:55.426Z,5.30
2018-03-27T19:31:22.960Z,5.30
2018-03-27T19:33:51.282Z,5.40
2018-03-27T19:36:18.818Z,5.40
2018-03-27T19:38:46.383Z,5.40
2018-03-27T19:41:13.969Z,5.40
2018-03-27T19:43:41.494Z,5.40
2018-03-27T19:46:09.091Z,5.50
2018-03-27T19:48:36.810Z,5.50
2018-03-27T19:51:05.107Z,5.50
2018-03-27T19:53:32.667Z,5.50
2018-03-27T19:56:00.199Z,5.50
2018-03-27T19:58:28.522Z,5.50
2018-03-27T20:00:56.063Z,5.50
2018-03-27T20:03:23.631Z,5.50
2018-03-27T20:05:51.162Z,5.50
2018-03-27T20:08:19.489Z,5.50
2018-03-27T20:10:47.024Z,5.50
2018-03-27T20:13:14.575Z,5.50
2018-03-27T20:15:42.156Z,5.50
2018-03-27T20:18:09.688Z,5.50
2018-03-27T20:20:37.984Z,5.60
2018-03-27T20:23:05.533Z,5.50
2018-03-27T20:25:33.067Z,5.60
2018-03-27T20:28:01.395Z,5.60
2018-03-27T20:30:28.926Z,5.60
2018-03-27T20:32:56.493Z,5.60
2018-03-27T20:35:24.036Z,5.70
2018-03-27T20:37:52.349Z,5.70
2018-03-27T20:40:19.873Z,5.70
2018-03-27T20:42:48.190Z,5.70
2018-03-27T20:45:15.727Z,5.70
2018-03-27T20:47:43.291Z,5.70
2018-03-27T20:50:10.819Z,5.80
2018-03-27T20:52:39.171Z,5.80
2018-03-27T20:55:06.726Z,5.90
2018-03-27T20:57:34.483Z,5.90
2018-03-27T21:00:02.020Z,5.90
2018-03-27T21:02:29.570Z,5.90
2018-03-27T21:04:57.158Z,5.90
2018-03-27T21:07:25.491Z,5.90
2018-03-27T21:09:53.788Z,5.90
2018-03-27T21:12:21.339Z,5.80
2018-03-27T21:14:48.878Z,5.90
2018-03-27T21:17:17.205Z,5.90
2018-03-27T21:19:44.739Z,5.90
2018-03-27T21:22:12.272Z,5.90
2018-03-27T21:24:39.826Z,6.00
2018-03-27T21:27:07.354Z,6.00
2018-03-27T21:29:34.903Z,6.00
2018-03-27T21:32:02.487Z,6.00
2018-03-27T21:34:30.883Z,5.90
2018-03-27T21:36:58.469Z,5.90
2018-03-27T21:39:26.021Z,6.00
2018-03-27T21:41:54.310Z,6.00
2018-03-27T21:44:21.866Z,6.00
2018-03-27T21:46:50.234Z,6.00
2018-03-27T21:49:18.570Z,6.00
2018-03-27T21:51:46.313Z,6.00
2018-03-27T21:54:13.880Z,6.00
2018-03-27T21:56:41.403Z,6.10
2018-03-27T21:59:09.726Z,6.10
2018-03-27T22:01:37.269Z,6.10
2018-03-27T22:04:04.994Z,6.10
2018-03-27T22:06:33.294Z,6.10
2018-03-27T22:09:00.957Z,6.10
2018-03-27T22:11:29.250Z,6.20
2018-03-27T22:13:57.111Z,6.20
2018-03-27T22:16:24.641Z,6.30
2018-03-27T22:18:53.000Z,6.30
2018-03-27T22:21:20.571Z,6.20
2018-03-27T22:23:48.126Z,6.30
2018-03-27T22:26:15.766Z,6.30
2018-03-27T22:28:43.319Z,6.30
2018-03-27T22:31:10.974Z,6.30
2018-03-27T22:33:38.535Z,6.30
2018-03-27T22:36:06.065Z,6.40
2018-03-27T22:38:33.624Z,6.40
2018-03-27T22:41:01.158Z,6.50
2018-03-27T22:43:29.590Z,6.50
2018-03-27T22:45:57.122Z,6.50
2018-03-27T22:48:24.720Z,6.50
2018-03-27T22:50:53.058Z,6.60
2018-03-27T22:53:20.607Z,6.60
2018-03-27T22:55:48.901Z,6.70
2018-03-27T22:58:16.457Z,6.60
2018-03-27T23:00:44.098Z,6.70
2018-03-27T23:03:12.423Z,6.70
2018-03-27T23:05:40.125Z,6.70
2018-03-27T23:08:07.742Z,6.70
2018-03-27T23:10:35.278Z,6.70
2018-03-27T23:13:02.838Z,6.70
2018-03-27T23:18:05.038Z,6.80
2018-03-27T23:20:32.586Z,6.80
2018-03-27T23:23:00.149Z,6.90
2018-03-27T23:25:27.707Z,6.90
2018-03-27T23:27:55.262Z,6.90
2018-03-27T23:30:22.802Z,6.90
2018-03-27T23:32:51.141Z,6.90
2018-03-27T23:35:18.680Z,6.90
2018-03-27T23:37:46.206Z,6.90
2018-03-27T23:40:14.528Z,7.00
2018-03-27T23:42:42.060Z,6.90
2018-03-27T23:45:09.617Z,7.00
2018-03-27T23:47:37.152Z,7.00
2018-03-27T23:50:05.470Z,7.00
2018-03-27T23:52:32.999Z,7.00
2018-03-27T23:55:01.323Z,7.00
2018-03-27T23:57:28.851Z,7.00
2018-03-27T23:59:56.406Z,7.10
